Time;durP1;ratioP1;P1;durP2;ratioP2;P2;SDS_P1;SDS_P2;PMS_P1;PMS_P2;Temp;Humidity;BMP_temperature;BMP_pressure;BME280_temperature;BME280_humidity;BME280_pressure;Samples;Min_cycle;Max_cycle;Signal;HPM_P1;HPM_P2
2022/07/21 00:01:11;;;;;;;2.98;1.72;;;;;;;16.30;62.49;99692.53;1685404;83;21047;-73
2022/07/21 00:03:38;;;;;;;2.77;1.82;;;;;;;16.30;62.51;99696.55;1678569;83;21045;-71
2022/07/21 00:06:06;;;;;;;35.52;3.47;;;;;;;16.26;62.57;99692.63;1682310;83;21158;-71
2022/07/21 00:08:32;;;;;;;4.10;1.98;;;;;;;16.25;62.71;99684.27;1700012;83;21093;-71
2022/07/21 00:10:59;;;;;;;5.03;1.65;;;;;;;16.21;62.98;99688.39;1692623;83;21045;-72
2022/07/21 00:13:27;;;;;;;3.75;1.85;;;;;;;16.22;63.08;99691.89;1682246;84;21061;-71
2022/07/21 00:15:54;;;;;;;3.80;1.87;;;;;;;16.19;63.11;99693.66;1683013;83;20987;-70
2022/07/21 00:18:20;;;;;;;3.22;1.87;;;;;;;16.15;63.18;99690.56;1692925;83;22081;-72
2022/07/21 00:20:47;;;;;;;4.28;2.15;;;;;;;16.12;63.35;99693.64;1673569;83;21468;-73
2022/07/21 00:23:14;;;;;;;5.25;2.05;;;;;;;16.09;63.45;99692.21;1677944;83;21030;-75
2022/07/21 00:25:41;;;;;;;8.00;1.90;;;;;;;16.06;63.47;99694.47;1684300;84;21054;-74
2022/07/21 00:28:08;;;;;;;3.35;1.80;;;;;;;16.04;63.67;99693.85;1673222;84;21046;-75
2022/07/21 00:30:34;;;;;;;2.55;1.98;;;;;;;16.01;63.70;99696.93;1663970;85;21249;-74
2022/07/21 00:33:02;;;;;;;4.78;2.00;;;;;;;15.97;63.73;99707.22;1687083;83;21018;-76
2022/07/21 00:35:29;;;;;;;3.77;2.30;;;;;;;15.92;63.78;99704.35;1683316;84;21613;-75
2022/07/21 00:37:55;;;;;;;3.55;2.12;;;;;;;15.88;63.98;99699.91;1687262;85;21057;-75
2022/07/21 00:40:22;;;;;;;2.80;1.95;;;;;;;15.88;63.99;99701.77;1686797;83;21078;-73
2022/07/21 00:42:49;;;;;;;3.80;1.98;;;;;;;15.84;64.16;99703.19;1688525;83;22104;-74
2022/07/21 00:45:17;;;;;;;2.80;1.77;;;;;;;15.80;64.28;99696.59;1685570;83;21109;-73
2022/07/21 00:47:43;;;;;;;3.85;2.20;;;;;;;15.75;64.35;99694.53;1696394;83;21030;-74
2022/07/21 00:51:00;;;;;;;3.95;2.33;;;;;;;15.75;64.77;99690.52;1845502;74;28474;-72
2022/07/21 00:53:26;;;;;;;3.42;2.25;;;;;;;15.70;64.88;99695.61;1835587;75;21127;-75
2022/07/21 00:55:53;;;;;;;3.60;2.00;;;;;;;15.67;64.86;99694.17;1853458;75;21202;-75
2022/07/21 00:58:21;;;;;;;4.95;2.10;;;;;;;15.65;64.99;99700.25;1842693;75;20992;-73
2022/07/21 01:00:48;;;;;;;5.53;2.22;;;;;;;15.64;65.02;99697.77;1844771;75;21021;-75
2022/07/21 01:03:14;;;;;;;5.17;2.22;;;;;;;15.61;64.95;99696.33;1856287;77;21039;-73
2022/07/21 01:05:41;;;;;;;4.25;1.95;;;;;;;15.58;64.99;99687.86;1855406;75;20992;-75
2022/07/21 01:08:09;;;;;;;3.52;2.17;;;;;;;15.56;64.99;99686.72;1850664;75;21603;-73
2022/07/21 01:10:36;;;;;;;4.53;2.15;;;;;;;15.54;65.03;99696.29;1856282;75;21040;-75
2022/07/21 01:13:04;;;;;;;2.40;2.15;;;;;;;15.52;64.99;99701.02;1853321;75;20984;-74
2022/07/21 01:15:31;;;;;;;3.02;2.60;;;;;;;15.47;65.08;99699.48;1855868;75;21060;-73
2022/07/21 01:17:58;;;;;;;3.08;1.98;;;;;;;15.44;65.17;99697.19;1853706;75;21041;-73
2022/07/21 01:20:25;;;;;;;5.12;2.42;;;;;;;15.41;65.30;99693.56;1856989;77;21079;-71
2022/07/21 01:22:55;;;;;;;4.70;2.52;;;;;;;15.38;65.47;99697.19;1855453;75;20993;-72
2022/07/21 01:25:22;;;;;;;5.17;2.52;;;;;;;15.33;65.57;99693.23;1828088;75;21118;-71
2022/07/21 01:27:50;;;;;;;3.25;2.20;;;;;;;15.31;65.71;99694.47;1848617;75;21009;-71
2022/07/21 01:30:16;;;;;;;3.83;2.85;;;;;;;15.29;65.76;99679.94;1857167;75;21480;-73
2022/07/21 01:32:43;;;;;;;4.78;2.40;;;;;;;15.28;65.82;99678.83;1858471;75;21871;-74
2022/07/21 01:35:13;;;;;;;5.62;2.33;;;;;;;15.25;65.81;99677.36;1841836;75;21052;-71
2022/07/21 01:37:43;;;;;;;3.58;2.37;;;;;;;15.23;65.92;99683.42;1858129;75;20996;-73
2022/07/21 01:42:55;;;;;;;4.28;3.08;;;;;;;15.19;66.06;99670.66;1857918;75;20997;-72
2022/07/21 01:45:22;;;;;;;4.50;2.58;;;;;;;15.17;66.15;99671.37;1855375;77;21246;-73
2022/07/21 01:47:49;;;;;;;3.72;2.55;;;;;;;15.14;66.20;99676.58;1859380;77;21011;-72
2022/07/21 01:50:18;;;;;;;4.60;2.55;;;;;;;15.12;66.24;99671.45;1856680;77;21509;-74
2022/07/21 01:52:45;;;;;;;6.28;3.17;;;;;;;15.10;66.33;99674.84;1837932;75;21477;-72
2022/07/21 01:55:11;;;;;;;6.72;3.05;;;;;;;15.05;66.58;99665.24;1846037;75;21025;-73
2022/07/21 01:57:38;;;;;;;5.37;2.70;;;;;;;15.02;66.68;99670.98;1831943;77;21200;-74
2022/07/21 02:00:07;;;;;;;5.25;2.98;;;;;;;14.99;66.72;99671.88;1848601;77;21131;-75
2022/07/21 02:02:34;;;;;;;7.87;2.62;;;;;;;14.96;66.77;99674.45;1857916;77;21000;-73
2022/07/21 02:05:00;;;;;;;5.25;2.95;;;;;;;14.94;66.88;99665.80;1849030;75;20989;-73
2022/07/21 02:07:27;;;;;;;4.53;2.75;;;;;;;14.91;66.93;99672.39;1853833;77;21016;-74
2022/07/21 02:09:53;;;;;;;4.05;2.77;;;;;;;14.86;67.04;99664.64;1857634;77;21052;-75
2022/07/21 02:12:20;;;;;;;6.80;3.05;;;;;;;14.84;67.13;99664.02;1841255;75;21018;-74
2022/07/21 02:14:46;;;;;;;4.87;2.70;;;;;;;14.87;67.21;99656.42;1849409;75;21075;-75
2022/07/21 02:17:13;;;;;;;6.03;2.83;;;;;;;15.02;67.07;99660.28;1857696;77;21096;-73
2022/07/21 02:19:42;;;;;;;7.33;3.55;;;;;;;15.06;67.00;99667.40;1858630;77;21052;-73
2022/07/21 02:22:08;;;;;;;5.97;2.90;;;;;;;15.04;66.94;99664.92;1858432;77;21136;-72
2022/07/21 02:24:35;;;;;;;5.22;3.20;;;;;;;15.03;66.92;99656.59;1841623;75;21705;-72
2022/07/21 02:27:03;;;;;;;5.00;3.17;;;;;;;15.04;66.90;99662.76;1849783;75;21036;-75
2022/07/21 02:29:30;;;;;;;6.08;2.77;;;;;;;15.03;66.95;99657.11;1815324;77;20993;-73
2022/07/21 02:31:56;;;;;;;6.55;2.83;;;;;;;15.02;66.89;99661.61;1782044;80;21046;-72
2022/07/21 02:34:24;;;;;;;8.33;3.17;;;;;;;15.00;66.96;99660.99;1789442;80;22323;-72
2022/07/21 02:36:51;;;;;;;11.12;3.58;;;;;;;14.98;67.09;99655.02;1780381;78;21183;-72
2022/07/21 02:39:18;;;;;;;7.65;3.17;;;;;;;14.98;67.24;99656.88;1785053;79;21047;-72
2022/07/21 02:41:45;;;;;;;5.42;2.70;;;;;;;14.99;67.33;99655.83;1777769;78;21052;-73
2022/07/21 02:44:11;;;;;;;8.13;3.80;;;;;;;15.00;67.27;99656.98;1775842;78;21001;-74
2022/07/21 02:46:38;;;;;;;6.55;3.00;;;;;;;14.99;67.24;99664.70;1782458;78;21545;-72
2022/07/21 02:49:04;;;;;;;6.42;2.77;;;;;;;14.96;67.34;99658.92;1769296;79;21521;-73
2022/07/21 02:51:30;;;;;;;5.08;2.92;;;;;;;14.90;67.40;99652.52;1768387;79;21458;-73
2022/07/21 02:53:59;;;;;;;6.87;2.72;;;;;;;14.87;67.50;99641.72;1770320;78;20968;-73
2022/07/21 02:56:25;;;;;;;3.95;2.58;;;;;;;14.86;67.57;99641.91;1775455;78;21024;-71
2022/07/21 02:58:52;;;;;;;5.75;2.60;;;;;;;14.84;67.65;99638.61;1787707;78;21053;-72
2022/07/21 03:01:20;;;;;;;5.53;2.83;;;;;;;14.84;67.74;99643.95;1788627;78;21509;-73
2022/07/21 03:03:48;;;;;;;7.78;2.47;;;;;;;14.84;67.78;99642.09;1785892;78;21012;-74
2022/07/21 03:06:14;;;;;;;5.00;3.00;;;;;;;14.90;67.77;99645.83;1777042;78;21551;-76
2022/07/21 03:08:41;;;;;;;4.22;2.70;;;;;;;15.06;67.64;99644.14;1789165;78;21484;-75
2022/07/21 03:11:07;;;;;;;6.78;3.62;;;;;;;15.08;67.50;99644.77;1776505;78;21366;-75
2022/07/21 03:13:34;;;;;;;3.90;2.55;;;;;;;15.11;67.58;99639.02;1783841;78;21051;-73
2022/07/21 03:16:01;;;;;;;5.78;2.58;;;;;;;15.13;67.48;99640.17;1789431;79;21025;-76
2022/07/21 03:18:28;;;;;;;6.17;2.80;;;;;;;15.13;67.39;99636.16;1781324;78;21064;-75
2022/07/21 03:20:54;;;;;;;4.92;3.08;;;;;;;15.14;67.26;99644.48;1789100;78;21029;-71
2022/07/21 03:23:21;;;;;;;7.72;2.60;;;;;;;15.10;67.48;99635.20;1765570;79;21165;-74
2022/07/21 03:25:48;;;;;;;4.05;2.40;;;;;;;15.09;67.46;99637.58;1810728;77;21014;-72
2022/07/21 03:28:16;;;;;;;7.65;2.98;;;;;;;15.08;67.42;99633.24;1804278;77;21064;-73
2022/07/21 03:30:43;;;;;;;3.52;2.33;;;;;;;15.08;67.53;99639.94;1807393;77;21154;-73
2022/07/21 03:33:10;;;;;;;4.60;2.22;;;;;;;15.09;67.54;99644.27;1815258;77;21048;-73
2022/07/21 03:35:37;;;;;;;6.78;2.55;;;;;;;15.09;67.49;99642.94;1801705;79;21053;-72
2022/07/21 03:38:04;;;;;;;4.47;2.05;;;;;;;15.11;67.54;99643.03;1811337;77;21100;-73
2022/07/21 03:40:33;;;;;;;4.12;2.70;;;;;;;15.12;67.59;99641.18;1813783;77;21088;-73
2022/07/21 03:43:03;;;;;;;3.90;2.35;;;;;;;15.16;67.64;99639.75;1793987;77;21599;-70
2022/07/21 03:45:30;;;;;;;3.05;1.92;;;;;;;15.20;67.72;99641.02;1804461;77;21557;-72
2022/07/21 03:47:58;;;;;;;3.27;1.90;;;;;;;15.23;67.64;99636.59;1812584;79;21948;-72
2022/07/21 03:50:26;;;;;;;3.10;1.98;;;;;;;15.26;67.65;99634.86;1804616;77;21027;-73
2022/07/21 03:52:53;;;;;;;3.25;2.08;;;;;;;15.32;67.59;99634.05;1800487;78;21012;-72
2022/07/21 03:55:20;;;;;;;7.40;1.87;;;;;;;15.38;67.49;99629.75;1797022;79;21008;-71
2022/07/21 03:57:52;;;;;;;4.33;2.15;;;;;;;15.44;67.38;99634.28;1780958;78;21072;-73
2022/07/21 04:00:26;;;;;;;3.42;2.33;;;;;;;15.51;67.21;99632.45;1786432;78;21272;-73
2022/07/21 04:02:52;;;;;;;4.50;2.12;;;;;;;15.56;67.20;99627.00;1765296;78;21504;-70
2022/07/21 04:05:19;;;;;;;5.87;2.02;;;;;;;15.61;67.03;99627.23;1791808;78;21607;-70
2022/07/21 04:07:48;;;;;;;3.17;1.85;;;;;;;15.65;67.04;99623.92;1788683;78;21568;-71
2022/07/21 04:10:19;;;;;;;4.97;2.17;;;;;;;15.73;66.90;99623.75;1791478;79;21031;-73
2022/07/21 04:12:46;;;;;;;5.33;2.00;;;;;;;15.81;66.77;99623.25;1780709;78;21083;-73
2022/07/21 04:15:13;;;;;;;5.95;2.22;;;;;;;15.85;66.67;99619.95;1794224;78;21029;-72
2022/07/21 04:17:41;;;;;;;2.95;2.45;;;;;;;15.91;66.65;99619.12;1801041;78;21036;-73
2022/07/21 04:20:09;;;;;;;5.00;2.22;;;;;;;15.96;66.54;99619.86;1800985;79;21028;-72
2022/07/21 04:22:37;;;;;;;4.03;2.22;;;;;;;16.03;66.49;99621.19;1802536;79;21086;-72
2022/07/21 04:25:06;;;;;;;2.67;1.98;;;;;;;16.09;66.16;99625.22;1797814;78;21241;-73
2022/07/21 04:27:34;;;;;;;3.83;2.02;;;;;;;16.17;66.11;99632.22;1795173;78;21036;-72
2022/07/21 04:30:01;;;;;;;5.72;2.20;;;;;;;16.22;66.13;99621.69;1781295;78;21008;-72
2022/07/21 04:32:28;;;;;;;6.50;2.30;;;;;;;16.37;66.07;99620.13;1801593;79;21115;-73
2022/07/21 04:34:54;;;;;;;6.47;2.30;;;;;;;16.56;65.82;99622.99;1796040;79;21017;-73
2022/07/21 04:37:21;;;;;;;3.10;2.22;;;;;;;16.69;65.41;99626.45;1797332;78;21136;-73
2022/07/21 04:39:49;;;;;;;5.58;2.20;;;;;;;16.81;65.25;99625.80;1789500;78;21063;-74
2022/07/21 04:42:15;;;;;;;4.10;2.15;;;;;;;16.93;65.00;99628.68;1777804;78;21094;-73
2022/07/21 04:44:42;;;;;;;3.33;2.37;;;;;;;17.04;64.62;99622.66;1800143;78;21032;-72
2022/07/21 04:47:08;;;;;;;4.67;2.45;;;;;;;17.18;64.30;99622.07;1791422;78;20989;-73
2022/07/21 04:49:35;;;;;;;4.08;2.02;;;;;;;17.32;64.16;99624.16;1789331;79;21145;-74
2022/07/21 04:52:02;;;;;;;3.10;2.42;;;;;;;17.43;63.55;99622.14;1786878;78;21777;-74
2022/07/21 04:54:29;;;;;;;4.28;2.12;;;;;;;17.51;63.20;99623.22;1787941;78;21008;-73
2022/07/21 04:56:56;;;;;;;7.08;2.33;;;;;;;17.54;63.13;99625.48;1802218;79;21063;-73
2022/07/21 04:59:23;;;;;;;3.50;1.90;;;;;;;17.57;63.25;99632.27;1799761;79;21098;-73
2022/07/21 05:01:49;;;;;;;3.87;2.20;;;;;;;17.76;63.14;99634.00;1790332;78;21237;-74
2022/07/21 05:04:17;;;;;;;2.50;2.05;;;;;;;18.04;62.92;99643.03;1780723;78;21095;-74
2022/07/21 05:06:44;;;;;;;3.42;2.10;;;;;;;18.27;62.06;99626.28;1798249;78;21536;-75
2022/07/21 05:09:11;;;;;;;3.22;2.35;;;;;;;18.38;61.50;99624.72;1759814;79;20996;-73
2022/07/21 05:11:38;;;;;;;3.77;2.12;;;;;;;18.41;61.49;99619.44;1796360;78;20997;-74
2022/07/21 05:14:06;;;;;;;2.75;1.98;;;;;;;18.44;61.32;99619.78;1793738;78;21061;-73
2022/07/21 05:16:33;;;;;;;7.53;2.40;;;;;;;18.58;61.20;99627.72;1789196;78;21021;-72
2022/07/21 05:19:00;;;;;;;2.60;2.10;;;;;;;18.69;60.88;99628.86;1795483;78;20992;-73
2022/07/21 05:21:27;;;;;;;6.33;2.02;;;;;;;18.76;60.95;99624.23;1795062;78;21512;-73
2022/07/21 05:23:54;;;;;;;4.65;2.17;;;;;;;18.82;60.67;99621.48;1801370;79;21032;-73
2022/07/21 05:26:21;;;;;;;3.40;2.33;;;;;;;18.92;60.74;99618.27;1797388;78;21140;-73
2022/07/21 05:28:47;;;;;;;2.25;2.05;;;;;;;19.03;60.74;99616.69;1799129;78;21060;-73
2022/07/21 05:31:14;;;;;;;4.28;2.12;;;;;;;19.14;60.43;99621.31;1792242;78;21480;-76
2022/07/21 05:33:41;;;;;;;5.45;2.15;;;;;;;19.18;60.13;99616.27;1798166;79;21024;-74
2022/07/21 05:36:08;;;;;;;4.40;2.45;;;;;;;19.24;60.00;99621.59;1788546;79;21012;-74
2022/07/21 05:38:35;;;;;;;2.40;1.92;;;;;;;19.28;59.79;99620.61;1783529;78;21106;-73
2022/07/21 05:41:03;;;;;;;3.55;2.22;;;;;;;19.28;59.91;99615.22;1799958;79;21032;-71
2022/07/21 05:43:30;;;;;;;2.92;2.17;;;;;;;19.30;60.04;99614.47;1799863;78;21184;-71
2022/07/21 05:45:57;;;;;;;4.42;2.00;;;;;;;19.33;60.02;99613.99;1784108;78;21063;-72
2022/07/21 05:48:24;;;;;;;4.65;2.40;;;;;;;19.34;59.97;99610.27;1775039;79;21017;-71
2022/07/21 05:50:50;;;;;;;4.15;2.10;;;;;;;19.36;59.82;99610.85;1778946;78;23019;-71
2022/07/21 05:53:17;;;;;;;5.90;2.55;;;;;;;19.40;59.82;99602.61;1788858;79;21281;-70
2022/07/21 05:55:44;;;;;;;4.33;1.62;;;;;;;19.43;59.75;99607.55;1788250;79;21103;-70
2022/07/21 05:58:11;;;;;;;9.00;2.20;;;;;;;19.48;59.77;99611.42;1776302;79;21003;-71
2022/07/21 06:00:38;;;;;;;2.72;1.98;;;;;;;19.54;59.73;99609.16;1780301;79;21107;-70
2022/07/21 06:03:05;;;;;;;3.87;1.85;;;;;;;19.59;59.70;99610.11;1770451;81;21137;-70
2022/07/21 06:05:32;;;;;;;6.40;2.33;;;;;;;19.65;59.54;99617.80;1757853;81;21007;-69
2022/07/21 06:08:00;;;;;;;3.25;1.80;;;;;;;19.70;59.41;99603.12;1746813;81;21035;-70
2022/07/21 06:10:27;;;;;;;4.62;1.85;;;;;;;19.77;59.33;99611.92;1759074;79;21021;-71
2022/07/21 06:12:55;;;;;;;4.75;1.90;;;;;;;19.85;58.96;99604.03;1773940;79;20985;-70
2022/07/21 06:15:22;;;;;;;4.22;1.50;;;;;;;19.94;58.80;99596.44;1772451;79;21262;-70
2022/07/21 06:17:49;;;;;;;5.33;1.77;;;;;;;20.00;58.21;99603.59;1771722;79;21061;-70
2022/07/21 06:20:15;;;;;;;2.12;1.50;;;;;;;20.06;58.11;99601.84;1771939;79;21045;-69
2022/07/21 06:22:43;;;;;;;1.92;1.62;;;;;;;20.12;58.29;99601.70;1785762;79;21064;-69
2022/07/21 06:25:10;;;;;;;4.70;1.87;;;;;;;20.22;58.03;99597.91;1783487;79;21643;-70
2022/07/21 06:27:37;;;;;;;1.62;1.50;;;;;;;20.31;57.74;99601.60;1780464;79;21085;-70
2022/07/21 06:30:05;;;;;;;3.22;1.82;;;;;;;20.38;57.55;99602.30;1783826;79;21065;-69
2022/07/21 06:32:34;;;;;;;5.92;2.02;;;;;;;20.46;57.44;99602.48;1755922;79;21056;-70
2022/07/21 06:35:01;;;;;;;1.90;1.70;;;;;;;20.51;57.33;99593.12;1775356;79;21057;-73
2022/07/21 06:37:27;;;;;;;4.67;1.60;;;;;;;20.56;57.12;99593.24;1773206;79;21033;-71
2022/07/21 06:39:54;;;;;;;4.05;1.87;;;;;;;20.60;56.94;99592.55;1762861;78;21085;-73
2022/07/21 06:42:21;;;;;;;3.47;1.98;;;;;;;20.66;56.86;99589.97;1776971;79;21041;-72
2022/07/21 06:44:47;;;;;;;2.87;1.80;;;;;;;20.73;56.95;99586.62;1771679;79;21048;-74
2022/07/21 06:47:16;;;;;;;3.42;1.62;;;;;;;20.81;57.04;99586.23;1782165;79;21634;-72
2022/07/21 06:49:42;;;;;;;2.22;1.70;;;;;;;20.88;56.83;99588.28;1773065;79;20998;-73
2022/07/21 06:52:09;;;;;;;3.30;1.42;;;;;;;20.94;56.01;99593.25;1794386;77;22182;-74
2022/07/21 06:54:36;;;;;;;5.58;1.75;;;;;;;20.95;55.43;99580.02;1812337;78;21088;-72
2022/07/21 06:57:03;;;;;;;3.80;1.65;;;;;;;20.96;55.44;99582.49;1817622;77;21088;-74
2022/07/21 06:59:30;;;;;;;2.55;1.60;;;;;;;21.00;55.32;99583.65;1801968;79;21044;-73
2022/07/21 07:01:59;;;;;;;3.77;1.87;;;;;;;21.04;55.68;99583.18;1791173;77;21029;-75
2022/07/21 07:04:25;;;;;;;8.35;1.85;;;;;;;21.10;55.76;99578.16;1806421;77;21271;-76
2022/07/21 07:06:53;;;;;;;2.98;1.70;;;;;;;21.15;55.63;99572.83;1809330;79;21029;-74
2022/07/21 07:09:20;;;;;;;2.27;1.65;;;;;;;21.19;55.45;99565.91;1789084;78;21064;-76
2022/07/21 07:11:51;;;;;;;7.28;1.42;;;;;;;21.23;55.16;99567.06;1797173;79;21463;-76
2022/07/21 07:14:18;;;;;;;5.72;1.62;;;;;;;21.26;54.95;99567.91;1796029;78;20988;-75
2022/07/21 07:16:47;;;;;;;9.08;1.55;;;;;;;21.31;54.91;99569.36;1788560;78;22308;-75
2022/07/21 07:19:18;;;;;;;4.03;1.72;;;;;;;21.36;54.93;99569.47;1791963;78;20990;-81
2022/07/21 07:21:46;;;;;;;4.03;1.80;;;;;;;21.40;54.77;99568.42;1781144;78;20958;-76
2022/07/21 07:24:15;;;;;;;1.90;1.67;;;;;;;21.44;54.59;99567.44;1803053;78;21029;-76
2022/07/21 07:26:42;;;;;;;2.30;1.50;;;;;;;21.48;54.30;99566.72;1799732;78;21502;-77
2022/07/21 07:29:09;;;;;;;4.70;1.50;;;;;;;21.54;53.89;99571.15;1786129;78;21940;-78
2022/07/21 07:31:35;;;;;;;2.08;1.35;;;;;;;21.59;53.78;99559.59;1799111;78;20988;-72
2022/07/21 07:34:03;;;;;;;3.42;1.70;;;;;;;21.62;52.86;99563.17;1789923;78;21044;-77
2022/07/21 07:36:32;;;;;;;5.25;1.67;;;;;;;21.64;52.64;99558.33;1785782;78;21078;-78
2022/07/21 07:38:59;;;;;;;2.15;1.40;;;;;;;21.69;53.07;99568.41;1787203;78;21009;-73
2022/07/21 07:41:26;;;;;;;4.22;1.25;;;;;;;21.71;53.01;99560.35;1788526;78;21101;-77
2022/07/21 07:43:53;;;;;;;3.95;1.30;;;;;;;21.74;52.78;99563.90;1778094;78;21044;-77
2022/07/21 07:46:20;;;;;;;4.55;1.30;;;;;;;21.76;52.76;99553.66;1788016;78;21038;-76
2022/07/21 07:48:47;;;;;;;1.52;1.30;;;;;;;21.75;52.60;99550.68;1784772;78;21021;-72
2022/07/21 07:51:14;;;;;;;4.50;1.55;;;;;;;21.83;52.50;99558.07;1777726;78;21059;-73
2022/07/21 07:53:42;;;;;;;2.90;1.62;;;;;;;21.91;52.16;99557.68;1794402;77;21176;-75
2022/07/21 07:56:08;;;;;;;7.80;1.82;;;;;;;22.00;51.82;99549.44;1774787;78;21533;-75
2022/07/21 07:58:35;;;;;;;2.27;1.30;;;;;;;22.10;51.98;99547.42;1781769;78;21639;-76
2022/07/21 08:01:02;;;;;;;3.40;1.25;;;;;;;22.19;51.86;99540.48;1779403;78;21028;-77
2022/07/21 08:03:28;;;;;;;3.20;1.27;;;;;;;22.28;50.83;99532.80;1783470;78;21553;-76
2022/07/21 08:05:59;;;;;;;1.20;1.07;;;;;;;22.37;50.33;99540.78;1781842;79;21285;-76
2022/07/21 08:08:25;;;;;;;1.82;1.10;;;;;;;22.45;50.40;99543.59;1784803;78;21033;-77
2022/07/21 08:10:51;;;;;;;2.20;1.50;;;;;;;22.56;49.89;99540.75;1777265;78;21087;-76
2022/07/21 08:13:18;;;;;;;2.35;1.30;;;;;;;22.67;50.09;99525.98;1767643;78;21461;-75
2022/07/21 08:15:48;;;;;;;5.20;1.57;;;;;;;22.82;50.12;99526.15;1782888;78;20993;-75
2022/07/21 08:18:16;;;;;;;3.83;1.37;;;;;;;22.94;49.54;99524.65;1775922;78;21544;-76
2022/07/21 08:20:42;;;;;;;2.90;1.98;;;;;;;23.00;49.84;99529.59;1805372;77;21259;-76
2022/07/21 08:23:09;;;;;;;2.58;1.32;;;;;;;23.05;49.62;99524.27;1795768;77;21044;-79
2022/07/21 08:25:35;;;;;;;1.87;1.35;;;;;;;23.07;49.72;99520.21;1816750;78;20998;-78
2022/07/21 08:28:02;;;;;;;4.20;1.90;;;;;;;23.12;49.52;99513.50;1822637;77;21059;-76
2022/07/21 08:30:29;;;;;;;4.65;1.40;;;;;;;23.24;49.54;99513.34;1802187;78;22592;-75
2022/07/21 08:32:56;;;;;;;4.50;1.50;;;;;;;23.43;49.37;99509.70;1832752;77;21552;-74
2022/07/21 08:35:22;;;;;;;1.82;1.20;;;;;;;23.66;48.59;99512.61;1802737;77;21052;-78
2022/07/21 08:38:01;;;;;;;3.35;1.60;;;;;;;23.84;48.04;99505.97;1806016;77;21302;-75
2022/07/21 08:40:31;;;;;;;4.65;1.75;;;;;;;23.98;47.46;99507.67;1803091;77;21087;-76
2022/07/21 08:42:58;;;;;;;5.12;1.55;;;;;;;24.07;47.15;99508.82;1804988;79;21530;-76
2022/07/21 08:45:25;;;;;;;5.85;1.57;;;;;;;24.10;47.65;99505.56;1816907;77;21017;-76
2022/07/21 08:47:55;;;;;;;4.22;1.45;;;;;;;24.15;47.64;99500.72;1814555;77;21155;-77
2022/07/21 08:50:22;;;;;;;2.72;1.40;;;;;;;24.21;47.26;99501.02;1801486;77;21056;-78
2022/07/21 08:52:49;;;;;;;1.90;1.60;;;;;;;24.23;46.92;99501.57;1801718;77;21021;-76
2022/07/21 08:55:16;;;;;;;2.80;1.60;;;;;;;24.27;47.14;99496.44;1757201;78;21277;-74
2022/07/21 08:57:43;;;;;;;4.12;1.52;;;;;;;24.27;46.85;99491.01;1777806;78;21028;-75
2022/07/21 09:00:10;;;;;;;2.45;1.40;;;;;;;24.27;47.25;99497.80;1762800;78;21028;-76
2022/07/21 09:02:39;;;;;;;3.83;1.52;;;;;;;24.38;47.31;99481.83;1806997;77;21060;-70
2022/07/21 09:05:08;;;;;;;4.05;1.40;;;;;;;24.47;46.90;99478.88;1796441;78;21048;-75
2022/07/21 09:07:53;;;;;;;2.55;1.50;;;;;;;24.59;47.08;99476.48;1826823;77;21117;-75
2022/07/21 09:10:26;;;;;;;1.87;1.35;;;;;;;24.78;46.87;99478.97;1817790;78;21001;-75
2022/07/21 09:12:58;;;;;;;2.35;1.37;;;;;;;25.00;46.58;99468.44;1818235;78;21527;-75
2022/07/21 09:15:26;;;;;;;1.85;1.32;;;;;;;25.20;46.21;99477.14;1816967;78;21005;-73
2022/07/21 09:18:12;;;;;;;5.10;1.57;;;;;;;25.41;45.74;99473.91;1802505;77;21038;-75
2022/07/21 09:20:47;;;;;;;4.53;1.20;;;;;;;25.61;45.40;99465.75;1802073;78;21053;-73
2022/07/21 09:23:16;;;;;;;2.12;1.80;;;;;;;25.88;45.15;99466.78;1798695;77;21029;-74
2022/07/21 09:25:49;;;;;;;4.33;1.50;;;;;;;26.23;44.69;99464.22;1804055;77;22294;-73
2022/07/21 09:28:24;;;;;;;4.30;1.62;;;;;;;26.53;44.23;99451.58;1800716;77;21013;-76
2022/07/21 09:30:58;;;;;;;3.58;1.20;;;;;;;26.66;44.12;99441.45;1812694;77;21033;-76
2022/07/21 09:33:33;;;;;;;2.35;1.47;;;;;;;26.70;43.86;99452.05;1806706;78;21182;-74
2022/07/21 09:36:11;;;;;;;4.22;1.60;;;;;;;26.68;43.59;99451.52;1798975;78;20973;-76
2022/07/21 09:38:41;;;;;;;6.20;1.90;;;;;;;26.82;43.41;99447.05;1789652;78;21012;-75
2022/07/21 09:41:15;;;;;;;3.30;1.77;;;;;;;27.16;43.02;99450.36;1804439;77;21001;-74
2022/07/21 09:43:50;;;;;;;1.75;1.52;;;;;;;27.68;42.49;99438.47;1804620;77;20985;-75
2022/07/21 09:46:28;;;;;;;2.62;2.08;;;;;;;28.33;41.89;99440.70;1804797;78;21218;-74
2022/07/21 09:49:04;;;;;;;2.45;1.92;;;;;;;29.00;40.94;99437.86;1804064;77;21041;-77
2022/07/21 09:51:37;;;;;;;2.87;1.70;;;;;;;29.63;39.88;99435.70;1799186;77;21704;-75
2022/07/21 09:54:08;;;;;;;3.57;1.80;;;;;;;30.17;39.35;99427.83;1799043;77;21036;-74
2022/07/21 09:56:42;;;;;;;2.62;1.80;;;;;;;30.83;38.52;99427.50;1785957;78;21270;-77
2022/07/21 09:59:11;;;;;;;2.37;2.00;;;;;;;31.52;37.58;99418.42;1800105;78;21197;-76
2022/07/21 10:01:38;;;;;;;4.00;1.82;;;;;;;32.03;36.81;99409.34;1802377;77;20954;-76
2022/07/21 10:04:06;;;;;;;2.90;1.80;;;;;;;32.32;36.63;99421.11;1812643;77;21001;-75
2022/07/21 10:06:38;;;;;;;4.28;1.85;;;;;;;32.37;36.14;99411.88;1797388;78;21072;-75
2022/07/21 10:09:07;;;;;;;4.15;2.35;;;;;;;32.17;36.22;99407.83;1813442;78;21533;-74
2022/07/21 10:11:34;;;;;;;5.25;2.27;;;;;;;31.90;36.37;99415.73;1812351;77;21097;-73
2022/07/21 10:14:02;;;;;;;2.50;2.20;;;;;;;31.70;36.49;99411.63;1806301;77;21032;-74
2022/07/21 10:16:28;;;;;;;2.62;2.27;;;;;;;31.61;36.65;99406.66;1809852;79;21001;-74
2022/07/21 10:19:03;;;;;;;2.40;2.10;;;;;;;31.68;37.00;99400.13;1812555;77;21534;-75
2022/07/21 10:22:22;;;;;;;3.08;1.80;;;;;;;31.77;36.58;99402.34;1809395;77;20992;-76
2022/07/21 10:24:48;;;;;;;2.87;2.20;;;;;;;31.66;37.00;99410.08;1808921;77;21309;-78
2022/07/21 10:27:15;;;;;;;3.90;2.00;;;;;;;31.54;36.96;99411.22;1812130;78;21493;-79
2022/07/21 10:29:55;;;;;;;2.67;2.45;;;;;;;31.62;37.13;99402.23;1806499;78;21010;-77
2022/07/21 10:32:30;;;;;;;2.42;2.22;;;;;;;31.77;36.74;99399.59;1815352;77;21029;-76
2022/07/21 10:34:59;;;;;;;2.20;2.00;;;;;;;31.76;36.55;99400.74;1811212;77;21497;-76
2022/07/21 10:37:44;;;;;;;3.45;2.30;;;;;;;31.57;36.71;99419.41;1807713;78;21218;-77
2022/07/21 10:40:25;;;;;;;5.33;3.05;;;;;;;31.40;36.92;99410.48;1802379;77;21021;-76
2022/07/21 10:43:07;;;;;;;2.20;2.00;;;;;;;31.29;37.32;99403.90;1795415;77;21037;-78
2022/07/21 10:45:39;;;;;;;4.37;2.70;;;;;;;31.39;37.50;99398.70;1796814;77;21049;-78
2022/07/21 10:48:09;;;;;;;2.80;2.27;;;;;;;31.64;37.14;99394.48;1812424;77;21041;-79
2022/07/21 10:50:41;;;;;;;3.27;2.00;;;;;;;31.89;36.79;99392.13;1766621;78;21097;-77
2022/07/21 10:53:18;;;;;;;2.55;2.27;;;;;;;32.24;36.60;99390.85;1807286;77;21041;-75
2022/07/21 10:55:53;;;;;;;3.55;1.90;;;;;;;32.74;36.04;99386.86;1806707;78;21261;-77
2022/07/21 10:58:39;;;;;;;4.90;2.47;;;;;;;33.18;35.43;99389.80;1802406;79;20977;-79
2022/07/21 11:01:24;;;;;;;2.98;2.25;;;;;;;33.77;34.91;99390.52;1807709;78;20997;-76
2022/07/21 11:04:10;;;;;;;8.03;2.52;;;;;;;34.10;34.42;99386.28;1806738;77;21192;-77
2022/07/21 11:06:40;;;;;;;4.22;2.30;;;;;;;34.04;34.42;99385.09;1803876;77;21064;-75
2022/07/21 11:09:10;;;;;;;6.47;2.20;;;;;;;33.94;34.61;99383.28;1807393;79;21047;-74
2022/07/21 11:11:57;;;;;;;3.45;2.37;;;;;;;33.88;34.74;99385.41;1818088;78;21024;-73
2022/07/21 11:14:37;;;;;;;3.17;2.50;;;;;;;33.78;34.73;99386.61;1798822;77;21017;-76
2022/07/21 11:17:04;;;;;;;4.20;2.80;;;;;;;33.89;34.62;99378.20;1809678;77;21054;-74
2022/07/21 11:19:49;;;;;;;3.08;2.37;;;;;;;34.28;34.45;99376.77;1809978;78;21076;-74
2022/07/21 11:22:22;;;;;;;2.77;2.40;;;;;;;34.66;33.97;99366.99;1812000;77;21025;-74
2022/07/21 11:24:56;;;;;;;5.65;2.50;;;;;;;35.07;33.82;99369.20;1800416;79;21017;-75
2022/07/21 11:27:25;;;;;;;5.35;2.72;;;;;;;35.62;33.00;99373.42;1811163;78;21021;-73
2022/07/21 11:29:55;;;;;;;4.85;2.80;;;;;;;36.06;32.92;99364.56;1802583;77;21213;-74
2022/07/21 11:32:22;;;;;;;2.80;2.60;;;;;;;36.46;32.53;99366.57;1809138;78;20997;-74
2022/07/21 11:34:53;;;;;;;5.42;3.40;;;;;;;36.69;32.03;99369.03;1811895;78;21005;-73
2022/07/21 11:37:39;;;;;;;3.93;3.63;;;;;;;36.72;31.59;99356.45;1814767;78;22235;-76
2022/07/21 11:40:13;;;;;;;5.40;3.37;;;;;;;36.72;31.59;99356.45;1819092;77;22159;-76
2022/07/21 11:42:40;;;;;;;4.62;2.80;;;;;;;36.83;31.76;99360.91;1812894;77;21109;-76
2022/07/21 11:45:08;;;;;;;3.20;3.00;;;;;;;36.71;31.62;99359.00;1814098;77;21013;-72